Time;durP1;ratioP1;P1;durP2;ratioP2;P2;SDS_P1;SDS_P2;PMS_P1;PMS_P2;Temp;Humidity;BMP_temperature;BMP_pressure;BME280_temperature;BME280_humidity;BME280_pressure;Samples;Min_cycle;Max_cycle;Signal;HPM_P1;HPM_P2
2023/08/12 00:01:03;;;;;;;5.17;4.33;;;19.70;20.30;;;;;;4937037;29;20194;-70
2023/08/12 00:03:29;;;;;;;7.63;4.70;;;19.60;20.60;;;;;;4936298;29;20210;-71
2023/08/12 00:05:56;;;;;;;7.67;4.17;;;19.60;20.70;;;;;;4936728;29;20197;-71
2023/08/12 00:08:22;;;;;;;6.80;3.40;;;19.50;21.40;;;;;;4936934;29;20429;-71
2023/08/12 00:10:47;;;;;;;4.73;4.20;;;19.50;21.60;;;;;;4936778;29;20414;-71
2023/08/12 00:13:17;;;;;;;5.43;3.57;;;19.50;21.50;;;;;;4936315;29;20433;-71
2023/08/12 00:15:43;;;;;;;4.50;3.80;;;19.50;21.10;;;;;;4936468;29;20257;-71
2023/08/12 00:18:09;;;;;;;5.77;4.47;;;19.50;20.90;;;;;;4936400;29;20490;-71
2023/08/12 00:20:34;;;;;;;4.70;3.70;;;19.50;21.30;;;;;;4936374;29;20419;-71
2023/08/12 00:23:00;;;;;;;4.47;3.40;;;19.50;21.40;;;;;;4950896;29;20187;-71
2023/08/12 00:25:25;;;;;;;5.37;3.40;;;19.40;22.40;;;;;;4936174;29;20229;-71
2023/08/12 00:27:52;;;;;;;6.70;5.20;;;19.30;22.80;;;;;;4936502;29;20178;-71
2023/08/12 00:30:17;;;;;;;7.00;4.13;;;19.30;22.80;;;;;;4936218;29;20202;-71
2023/08/12 00:32:43;;;;;;;5.13;3.40;;;19.30;22.90;;;;;;4935781;29;20928;-71
2023/08/12 00:35:09;;;;;;;5.30;4.23;;;19.20;23.80;;;;;;4936109;29;20657;-71
2023/08/12 00:37:34;;;;;;;7.50;4.10;;;19.20;23.80;;;;;;4936151;29;20262;-71
2023/08/12 00:40:00;;;;;;;4.90;3.77;;;19.10;23.80;;;;;;4935895;29;20225;-71
2023/08/12 00:42:25;;;;;;;5.00;3.90;;;19.10;23.80;;;;;;4935877;29;20187;-70
2023/08/12 00:44:51;;;;;;;5.30;3.90;;;19.00;24.50;;;;;;4935820;29;20223;-70
2023/08/12 00:47:17;;;;;;;4.53;3.83;;;19.00;24.70;;;;;;4935915;29;20185;-70
2023/08/12 00:49:45;;;;;;;4.77;4.13;;;18.90;24.70;;;;;;4935832;29;20183;-70
2023/08/12 00:52:12;;;;;;;4.33;3.63;;;18.80;25.70;;;;;;4935609;29;20490;-70
2023/08/12 00:54:38;;;;;;;5.90;3.30;;;18.80;26.20;;;;;;4935668;29;20439;-70
2023/08/12 00:57:03;;;;;;;5.77;4.30;;;18.70;26.50;;;;;;4935932;29;20845;-70
2023/08/12 00:59:29;;;;;;;4.30;3.90;;;18.70;26.70;;;;;;4934515;29;20281;-70
2023/08/12 01:01:55;;;;;;;4.53;3.73;;;18.70;27.10;;;;;;4935275;29;20187;-71
2023/08/12 01:04:20;;;;;;;5.50;5.00;;;18.60;27.80;;;;;;4935660;29;20792;-70
2023/08/12 01:06:46;;;;;;;4.80;4.30;;;18.60;27.70;;;;;;4935867;29;20197;-70
2023/08/12 01:09:12;;;;;;;6.63;3.37;;;18.60;27.90;;;;;;4935623;29;20179;-70
2023/08/12 01:11:59;;;;;;;4.80;3.97;;;18.60;27.70;;;;;;4935678;29;20286;-71
2023/08/12 01:14:33;;;;;;;6.33;3.73;;;18.60;27.50;;;;;;4936215;29;20556;-70
2023/08/12 01:17:05;;;;;;;5.70;4.10;;;18.60;27.10;;;;;;4937520;29;20425;-70
2023/08/12 01:19:39;;;;;;;5.30;3.80;;;18.60;27.40;;;;;;4936975;29;20446;-70
2023/08/12 01:22:08;;;;;;;6.40;4.07;;;18.50;27.50;;;;;;4936957;29;20439;-70
2023/08/12 01:24:37;;;;;;;5.03;3.97;;;18.50;28.10;;;;;;4936113;29;20545;-71
2023/08/12 01:27:03;;;;;;;5.23;4.23;;;18.50;28.00;;;;;;4934741;29;20438;-71
2023/08/12 01:29:29;;;;;;;5.07;4.20;;;18.40;27.70;;;;;;4936685;29;20419;-71
2023/08/12 01:32:04;;;;;;;4.60;4.00;;;18.40;28.30;;;;;;4936658;29;20430;-70
2023/08/12 01:34:50;;;;;;;4.13;3.60;;;18.50;27.10;;;;;;4935058;29;20804;-71
2023/08/12 01:37:25;;;;;;;8.10;3.87;;;18.40;27.40;;;;;;4935506;29;20574;-71
2023/08/12 01:39:53;;;;;;;6.30;4.20;;;18.40;27.00;;;;;;4935079;29;20424;-71
2023/08/12 01:42:19;;;;;;;5.43;4.23;;;18.50;26.20;;;;;;4934855;29;20490;-71
2023/08/12 01:44:46;;;;;;;5.83;4.30;;;18.50;26.30;;;;;;4934388;29;20502;-71
2023/08/12 01:47:11;;;;;;;7.03;4.03;;;18.50;25.90;;;;;;4934931;29;20787;-71
2023/08/12 01:49:37;;;;;;;9.03;4.53;;;18.50;25.60;;;;;;4934997;29;20447;-71
2023/08/12 01:52:03;;;;;;;4.70;3.97;;;18.60;26.00;;;;;;4934101;29;20174;-71
2023/08/12 01:54:33;;;;;;;7.57;4.30;;;18.50;24.80;;;;;;4934712;29;20210;-72
2023/08/12 01:57:01;;;;;;;4.97;3.93;;;18.50;25.20;;;;;;4935664;29;20449;-72
2023/08/12 01:59:27;;;;;;;5.67;3.93;;;18.50;24.70;;;;;;4935674;29;20450;-72
2023/08/12 02:01:52;;;;;;;4.47;3.50;;;18.50;25.30;;;;;;4934718;29;20476;-72
2023/08/12 02:04:18;;;;;;;5.70;5.00;;;18.50;24.90;;;;;;4934576;29;20232;-71
2023/08/12 02:06:43;;;;;;;6.77;4.27;;;18.50;25.00;;;;;;4935538;29;20225;-71
2023/08/12 02:09:09;;;;;;;5.50;3.90;;;18.60;25.30;;;;;;4949805;29;20195;-71
2023/08/12 02:11:35;;;;;;;11.07;4.60;;;18.60;25.00;;;;;;4934927;29;20174;-71
2023/08/12 02:14:00;;;;;;;5.00;4.30;;;18.70;25.20;;;;;;4934790;29;20261;-71
2023/08/12 02:16:26;;;;;;;3.93;3.50;;;18.80;24.90;;;;;;4935138;29;20206;-71
2023/08/12 02:18:51;;;;;;;3.13;2.67;;;18.80;24.80;;;;;;4934921;29;20584;-71
2023/08/12 02:21:17;;;;;;;5.23;4.50;;;18.80;24.40;;;;;;4935161;29;20187;-71
2023/08/12 02:23:44;;;;;;;7.00;4.40;;;18.80;24.40;;;;;;4934819;29;20222;-71
2023/08/12 02:26:09;;;;;;;3.53;3.23;;;18.70;24.90;;;;;;4935056;29;20282;-71
2023/08/12 02:28:35;;;;;;;5.17;3.60;;;18.70;25.30;;;;;;4934446;29;20525;-71
2023/08/12 02:31:01;;;;;;;3.80;3.20;;;18.70;24.90;;;;;;4934966;29;20182;-71
2023/08/12 02:33:26;;;;;;;4.50;3.80;;;18.70;25.50;;;;;;4934490;29;20186;-71
2023/08/12 02:35:54;;;;;;;5.37;3.60;;;18.70;25.00;;;;;;4934771;29;20426;-71
2023/08/12 02:38:20;;;;;;;5.13;3.17;;;18.70;25.00;;;;;;4934992;29;20210;-71
2023/08/12 02:40:49;;;;;;;6.30;4.10;;;18.70;25.30;;;;;;4934767;29;20434;-72
2023/08/12 02:43:16;;;;;;;4.50;3.80;;;18.60;25.90;;;;;;4934692;29;20517;-72
2023/08/12 02:45:41;;;;;;;5.10;3.23;;;18.60;25.40;;;;;;4934802;29;20422;-71
2023/08/12 02:48:07;;;;;;;6.30;4.20;;;18.60;25.50;;;;;;4934676;29;20789;-71
2023/08/12 02:50:33;;;;;;;5.40;4.23;;;18.70;25.30;;;;;;4935156;29;20274;-72
2023/08/12 02:52:58;;;;;;;4.67;4.17;;;18.70;25.20;;;;;;4935731;29;20481;-71
2023/08/12 02:55:24;;;;;;;6.73;4.20;;;18.70;24.80;;;;;;4935602;29;20203;-71
2023/08/12 02:57:50;;;;;;;5.43;4.10;;;18.70;24.70;;;;;;4935706;29;20270;-71
2023/08/12 03:00:15;;;;;;;6.10;4.60;;;18.70;24.70;;;;;;4935764;29;20179;-72
2023/08/12 03:02:44;;;;;;;5.47;4.10;;;18.70;24.80;;;;;;4936712;29;20266;-71
2023/08/12 03:05:10;;;;;;;4.70;4.23;;;18.70;24.40;;;;;;4937746;29;20218;-71
2023/08/12 03:07:35;;;;;;;4.67;4.27;;;18.80;23.90;;;;;;4938078;29;20514;-71
2023/08/12 03:10:01;;;;;;;4.00;3.20;;;18.90;24.10;;;;;;4937740;29;20222;-71
2023/08/12 03:12:26;;;;;;;5.53;4.27;;;18.90;24.00;;;;;;4937847;29;20665;-71
2023/08/12 03:14:52;;;;;;;6.60;4.70;;;18.90;23.70;;;;;;4937928;29;20229;-72
2023/08/12 03:17:18;;;;;;;4.33;3.70;;;18.90;23.60;;;;;;4939156;29;20233;-72
2023/08/12 03:19:43;;;;;;;6.80;4.53;;;18.90;23.80;;;;;;4938858;29;20269;-72
2023/08/12 03:22:09;;;;;;;4.67;3.77;;;18.90;23.80;;;;;;4938847;29;20359;-72
2023/08/12 03:24:34;;;;;;;8.50;4.33;;;19.00;23.70;;;;;;4938040;29;20293;-72
2023/08/12 03:27:00;;;;;;;7.10;4.90;;;19.00;23.80;;;;;;4938000;29;20640;-71
2023/08/12 03:29:25;;;;;;;5.53;4.40;;;19.00;24.10;;;;;;4937594;29;20170;-71
2023/08/12 03:31:51;;;;;;;3.63;2.90;;;19.00;24.00;;;;;;4937778;29;20175;-71
2023/08/12 03:34:17;;;;;;;4.77;4.27;;;19.00;24.00;;;;;;4937142;29;20281;-71
2023/08/12 03:36:42;;;;;;;5.70;4.57;;;19.00;24.00;;;;;;4937614;29;20186;-72
2023/08/12 03:39:08;;;;;;;6.97;4.63;;;18.90;23.70;;;;;;4937501;29;20175;-72
2023/08/12 03:41:33;;;;;;;6.00;3.73;;;18.90;24.50;;;;;;4940957;28;20191;-72
2023/08/12 03:43:59;;;;;;;5.17;4.67;;;18.90;23.80;;;;;;4938858;29;20230;-72
2023/08/12 03:46:25;;;;;;;6.00;4.70;;;19.00;23.00;;;;;;4918104;29;20187;-72
2023/08/12 03:48:50;;;;;;;6.30;4.60;;;19.00;22.30;;;;;;4920484;29;20183;-72
2023/08/12 03:51:16;;;;;;;4.53;4.13;;;18.90;23.20;;;;;;4931121;29;20612;-72
2023/08/12 03:53:42;;;;;;;6.90;4.53;;;18.90;23.00;;;;;;4936759;29;20695;-72
2023/08/12 03:56:07;;;;;;;6.77;5.17;;;19.00;22.60;;;;;;4937038;29;20269;-72
2023/08/12 03:58:33;;;;;;;6.10;5.20;;;19.00;22.50;;;;;;4937127;29;20254;-73
2023/08/12 04:00:58;;;;;;;6.07;5.10;;;18.90;23.50;;;;;;4936529;29;20534;-73
2023/08/12 04:03:24;;;;;;;8.30;4.80;;;19.00;23.00;;;;;;4936142;29;20210;-73
2023/08/12 04:05:52;;;;;;;5.63;4.87;;;19.00;22.90;;;;;;4936649;29;20685;-73
2023/08/12 04:08:19;;;;;;;6.10;4.53;;;19.00;23.50;;;;;;4936763;29;20406;-72
2023/08/12 04:10:47;;;;;;;6.70;5.17;;;19.00;23.30;;;;;;4936496;29;20418;-72
2023/08/12 04:13:13;;;;;;;5.40;4.70;;;19.00;22.70;;;;;;4936225;29;20430;-72
2023/08/12 04:15:39;;;;;;;5.30;4.60;;;19.10;22.40;;;;;;4935681;29;20968;-72
2023/08/12 04:18:05;;;;;;;5.70;3.67;;;19.20;22.00;;;;;;4936367;29;20490;-73
2023/08/12 04:20:30;;;;;;;5.03;4.53;;;19.20;22.10;;;;;;4936532;29;20523;-73
2023/08/12 04:22:56;;;;;;;5.07;3.70;;;19.20;21.70;;;;;;4936067;29;20290;-73
2023/08/12 04:25:22;;;;;;;7.00;4.33;;;19.20;21.20;;;;;;4936183;29;20206;-73
2023/08/12 04:27:49;;;;;;;4.37;3.33;;;19.30;20.60;;;;;;4936767;29;20182;-73
2023/08/12 04:30:16;;;;;;;5.93;4.20;;;19.30;21.00;;;;;;4936038;29;20423;-73
2023/08/12 04:32:42;;;;;;;4.80;3.97;;;19.30;21.50;;;;;;4935787;29;20471;-73
2023/08/12 04:35:08;;;;;;;6.43;3.80;;;19.30;21.20;;;;;;4936379;29;20438;-73
2023/08/12 04:37:36;;;;;;;5.20;4.40;;;19.30;21.60;;;;;;4936121;29;20657;-73
2023/08/12 04:40:04;;;;;;;6.00;3.83;;;19.30;21.10;;;;;;4936262;29;20430;-72
2023/08/12 04:42:30;;;;;;;6.23;4.40;;;19.40;21.00;;;;;;4935279;29;20414;-74
2023/08/12 04:44:55;;;;;;;5.10;4.47;;;19.40;20.50;;;;;;4950564;29;21013;-73
2023/08/12 04:47:21;;;;;;;4.37;3.20;;;19.50;20.10;;;;;;4935925;29;20575;-73
2023/08/12 04:49:46;;;;;;;7.40;4.57;;;19.50;20.10;;;;;;4934676;29;20189;-73
2023/08/12 04:52:12;;;;;;;5.63;3.93;;;19.50;20.30;;;;;;4935624;29;20174;-74
2023/08/12 04:54:38;;;;;;;6.93;4.17;;;19.50;20.60;;;;;;4935683;29;20195;-73
2023/08/12 04:57:03;;;;;;;6.60;4.00;;;19.60;20.70;;;;;;4936891;29;20238;-73
2023/08/12 04:59:29;;;;;;;5.60;4.47;;;19.60;20.70;;;;;;4955356;28;20178;-73
2023/08/12 05:01:54;;;;;;;4.93;4.30;;;19.60;20.70;;;;;;4954574;28;20202;-74
2023/08/12 05:04:20;;;;;;;5.20;4.70;;;19.70;20.60;;;;;;4954661;28;20220;-73
2023/08/12 05:06:45;;;;;;;5.90;4.00;;;19.70;20.70;;;;;;4965831;28;20532;-74
2023/08/12 05:09:11;;;;;;;7.37;4.00;;;19.80;20.40;;;;;;4935453;29;20247;-73
2023/08/12 05:11:37;;;;;;;5.17;4.33;;;19.90;19.70;;;;;;4935064;29;20182;-74
2023/08/12 05:14:02;;;;;;;4.60;4.07;;;20.00;20.10;;;;;;4934973;29;20699;-73
2023/08/12 05:16:29;;;;;;;4.67;4.17;;;20.10;18.80;;;;;;4935275;29;20591;-74
2023/08/12 05:18:54;;;;;;;7.80;4.20;;;20.30;17.80;;;;;;4935330;29;20178;-74
2023/08/12 05:21:20;;;;;;;4.87;4.10;;;20.30;17.20;;;;;;4935186;29;20414;-73
2023/08/12 05:23:46;;;;;;;5.53;3.67;;;20.30;16.90;;;;;;4934757;29;20242;-74
2023/08/12 05:26:12;;;;;;;6.70;4.53;;;20.40;17.10;;;;;;4934121;29;20715;-74
2023/08/12 05:28:38;;;;;;;6.23;4.30;;;20.40;17.70;;;;;;4935143;29;20294;-74
2023/08/12 05:31:03;;;;;;;6.23;4.20;;;20.40;17.40;;;;;;4935093;29;20451;-73
2023/08/12 05:33:29;;;;;;;4.63;3.60;;;20.60;17.00;;;;;;4934765;29;20190;-72
2023/08/12 05:35:54;;;;;;;6.50;4.67;;;20.80;15.00;;;;;;4935737;29;20201;-71
2023/08/12 05:38:20;;;;;;;6.27;4.07;;;21.00;14.50;;;;;;4935338;29;20582;-71
2023/08/12 05:40:46;;;;;;;5.03;4.43;;;21.20;13.70;;;;;;4934923;29;20222;-71
2023/08/12 05:43:11;;;;;;;5.40;4.43;;;21.20;13.40;;;;;;4934676;29;20578;-71
2023/08/12 05:45:37;;;;;;;4.73;3.10;;;21.20;14.30;;;;;;4934805;29;20195;-71
2023/08/12 05:48:03;;;;;;;4.37;3.93;;;21.40;14.60;;;;;;4934942;29;20592;-70
2023/08/12 05:50:28;;;;;;;4.30;3.47;;;21.50;13.20;;;;;;4949577;29;20691;-70
2023/08/12 05:52:54;;;;;;;6.53;3.50;;;21.70;13.10;;;;;;4934579;29;20181;-70
2023/08/12 05:55:19;;;;;;;4.60;3.60;;;22.10;12.30;;;;;;4934542;29;20218;-73
2023/08/12 05:57:45;;;;;;;5.57;4.40;;;22.50;9.30;;;;;;4934962;29;20665;-72
2023/08/12 06:00:11;;;;;;;5.70;4.70;;;22.60;7.60;;;;;;4934845;29;20193;-72
2023/08/12 06:02:37;;;;;;;5.30;4.67;;;22.60;8.30;;;;;;4934850;29;20210;-72
2023/08/12 06:05:02;;;;;;;6.30;3.70;;;22.70;8.30;;;;;;4934736;29;20473;-72
2023/08/12 06:07:28;;;;;;;5.07;4.17;;;23.10;7.80;;;;;;4934610;29;20186;-73
2023/08/12 06:09:53;;;;;;;4.73;3.63;;;24.00;5.70;;;;;;4934812;29;20598;-74
2023/08/12 06:12:19;;;;;;;5.03;3.90;;;24.40;3.50;;;;;;4934504;29;20175;-74
2023/08/12 06:14:44;;;;;;;4.10;3.50;;;24.60;2.70;;;;;;4934755;29;20251;-73
2023/08/12 06:17:10;;;;;;;5.57;3.70;;;24.90;3.80;;;;;;4935135;29;20182;-74
2023/08/12 06:19:36;;;;;;;5.23;4.70;;;25.20;1.80;;;;;;4935085;29;20233;-74
2023/08/12 06:22:01;;;;;;;3.70;3.40;;;25.30;1.00;;;;;;4934464;29;20604;-74
2023/08/12 06:24:27;;;;;;;4.90;4.50;;;25.30;1.00;;;;;;4933757;29;20214;-74
2023/08/12 06:26:52;;;;;;;5.03;4.20;;;25.60;1.00;;;;;;4934649;29;20234;-74
2023/08/12 06:29:18;;;;;;;4.30;3.53;;;26.60;1.00;;;;;;4934684;29;20174;-74
2023/08/12 06:31:43;;;;;;;6.00;4.40;;;27.00;1.00;;;;;;4934187;29;20810;-74
2023/08/12 06:34:12;;;;;;;5.20;4.20;;;28.30;1.00;;;;;;4949055;29;20277;-74
2023/08/12 06:36:40;;;;;;;5.80;4.87;;;31.00;1.00;;;;;;4934937;29;20194;-76
2023/08/12 06:39:05;;;;;;;7.83;5.50;;;33.80;1.00;;;;;;4938805;29;20422;-72
2023/08/12 06:41:31;;;;;;;5.50;5.07;;;35.30;1.00;;;;;;4938222;29;20438;-74
2023/08/12 06:43:56;;;;;;;5.33;4.93;;;36.30;1.00;;;;;;4938316;29;20301;-73
2023/08/12 06:46:22;;;;;;;9.13;5.83;;;35.60;1.00;;;;;;4938574;29;20205;-71
2023/08/12 06:48:48;;;;;;;6.57;5.87;;;36.20;1.00;;;;;;4938099;29;20277;-72
2023/08/12 06:51:13;;;;;;;6.10;5.50;;;36.40;1.00;;;;;;4938300;29;20631;-71
2023/08/12 06:53:40;;;;;;;5.70;5.20;;;36.50;1.00;;;;;;4937862;29;20230;-71
2023/08/12 06:56:05;;;;;;;7.80;5.60;;;36.40;1.00;;;;;;4938162;29;20179;-72
2023/08/12 06:58:31;;;;;;;6.33;5.73;;;34.90;1.00;;;;;;4937569;29;20438;-72
2023/08/12 07:00:59;;;;;;;7.80;5.10;;;33.40;1.00;;;;;;4938025;29;20221;-71
2023/08/12 07:03:24;;;;;;;6.60;5.30;;;31.70;1.00;;;;;;4937844;29;20560;-71
2023/08/12 07:05:50;;;;;;;7.27;6.53;;;30.70;1.00;;;;;;4935704;29;20996;-70
2023/08/12 07:08:15;;;;;;;5.20;4.80;;;30.70;1.00;;;;;;4938148;29;20183;-70
2023/08/12 07:10:42;;;;;;;5.07;4.67;;;31.00;1.00;;;;;;4937582;29;20273;-72
2023/08/12 07:13:07;;;;;;;6.03;5.53;;;31.20;1.00;;;;;;4937128;29;20532;-72
2023/08/12 07:15:33;;;;;;;5.30;4.80;;;31.00;1.00;;;;;;4938250;29;20469;-72
2023/08/12 07:17:59;;;;;;;5.90;5.30;;;30.90;1.00;;;;;;4937576;29;20190;-73
2023/08/12 07:20:25;;;;;;;5.73;5.13;;;31.60;1.00;;;;;;4937979;29;20541;-72
2023/08/12 07:22:50;;;;;;;5.33;4.93;;;31.70;1.00;;;;;;4935170;29;20661;-71
2023/08/12 07:25:16;;;;;;;7.00;6.30;;;31.30;1.00;;;;;;4922441;29;20771;-72
2023/08/12 07:27:43;;;;;;;5.17;4.77;;;30.80;1.00;;;;;;4934229;29;20184;-71
2023/08/12 07:30:09;;;;;;;6.10;5.03;;;30.20;1.00;;;;;;4920657;29;20427;-72
2023/08/12 07:32:37;;;;;;;5.37;4.73;;;30.00;1.00;;;;;;4937813;29;20441;-69
2023/08/12 07:35:03;;;;;;;6.93;5.60;;;30.80;1.00;;;;;;4937498;29;20451;-71
2023/08/12 07:37:29;;;;;;;6.10;5.50;;;31.60;1.00;;;;;;4938418;29;20627;-71
2023/08/12 07:39:54;;;;;;;7.67;6.97;;;32.90;1.00;;;;;;4936145;29;20222;-72
2023/08/12 07:42:20;;;;;;;9.33;5.73;;;33.60;1.00;;;;;;4937534;29;20191;-71
2023/08/12 07:44:46;;;;;;;7.00;6.30;;;33.40;1.00;;;;;;4937417;29;20218;-70
2023/08/12 07:47:11;;;;;;;6.33;5.83;;;32.80;1.00;;;;;;4952745;29;20277;-71
2023/08/12 07:49:38;;;;;;;7.67;6.97;;;33.20;1.00;;;;;;4935169;29;20194;-71
2023/08/12 07:52:03;;;;;;;6.50;6.00;;;34.90;1.00;;;;;;4937127;29;20672;-71
2023/08/12 07:54:29;;;;;;;6.63;6.13;;;37.30;1.00;;;;;;4937152;29;20442;-71
2023/08/12 07:56:55;;;;;;;7.10;6.50;;;38.10;1.00;;;;;;4936994;29;20419;-72
2023/08/12 07:59:20;;;;;;;8.73;6.80;;;38.30;1.00;;;;;;4934135;29;20195;-72
2023/08/12 08:01:46;;;;;;;7.53;6.93;;;38.60;1.00;;;;;;4935816;29;20739;-71
2023/08/12 08:04:12;;;;;;;6.23;5.83;;;37.60;1.00;;;;;;4937211;29;20215;-71
2023/08/12 08:06:37;;;;;;;5.40;5.00;;;36.70;1.00;;;;;;4928487;29;20183;-72
2023/08/12 08:09:03;;;;;;;5.83;5.43;;;36.60;1.00;;;;;;4951861;28;20578;-71
2023/08/12 08:11:30;;;;;;;6.47;5.97;;;36.00;1.00;;;;;;4936649;29;20193;-71
2023/08/12 08:13:57;;;;;;;6.40;5.80;;;35.70;1.00;;;;;;4937021;29;20206;-71
2023/08/12 08:16:22;;;;;;;6.00;5.60;;;34.40;1.00;;;;;;4936958;29;20418;-71
2023/08/12 08:18:48;;;;;;;6.60;6.10;;;34.20;1.00;;;;;;4927732;29;20963;-71
2023/08/12 08:21:14;;;;;;;6.60;5.20;;;33.60;1.00;;;;;;4936708;29;20242;-70
2023/08/12 08:23:41;;;;;;;7.07;5.97;;;34.20;1.00;;;;;;4936050;29;20274;-70
2023/08/12 08:26:07;;;;;;;6.27;5.87;;;34.40;1.00;;;;;;4937059;29;20190;-70
2023/08/12 08:28:33;;;;;;;6.30;5.90;;;34.10;1.00;;;;;;4936975;29;20414;-71
2023/08/12 08:30:58;;;;;;;7.30;6.70;;;35.50;1.00;;;;;;4936759;29;20175;-71
2023/08/12 08:33:25;;;;;;;6.90;6.40;;;37.20;1.00;;;;;;4936422;29;20183;-72
2023/08/12 08:35:51;;;;;;;6.97;6.47;;;37.10;1.00;;;;;;4936213;29;20249;-71
2023/08/12 08:38:16;;;;;;;6.43;5.93;;;35.50;1.00;;;;;;4936136;29;20920;-72
2023/08/12 08:40:42;;;;;;;7.90;7.10;;;36.40;1.00;;;;;;4936106;29;20265;-72
2023/08/12 08:43:08;;;;;;;6.50;6.00;;;38.70;1.00;;;;;;4935741;29;20213;-71
2023/08/12 08:45:34;;;;;;;6.10;5.50;;;39.50;1.00;;;;;;4936115;29;20265;-70
2023/08/12 08:48:01;;;;;;;6.43;5.93;;;38.90;1.00;;;;;;4936292;29;20493;-70
2023/08/12 08:50:30;;;;;;;6.20;5.57;;;37.00;1.00;;;;;;4936099;29;20433;-70
2023/08/12 08:52:56;;;;;;;6.70;6.10;;;35.90;1.00;;;;;;4935341;29;20427;-71
2023/08/12 08:55:22;;;;;;;5.97;5.57;;;35.00;1.00;;;;;;4934641;29;21021;-70
2023/08/12 08:57:49;;;;;;;7.67;6.00;;;34.20;1.00;;;;;;4936052;29;20419;-71
2023/08/12 09:00:18;;;;;;;6.40;5.90;;;33.40;1.00;;;;;;4934489;29;20431;-72
2023/08/12 09:02:48;;;;;;;7.00;6.30;;;32.60;1.00;;;;;;4935478;29;20434;-70
2023/08/12 09:05:14;;;;;;;10.00;5.17;;;32.00;1.00;;;;;;4935712;29;20473;-70
2023/08/12 09:07:42;;;;;;;5.37;4.97;;;32.20;1.00;;;;;;4935805;29;20423;-72
2023/08/12 09:10:08;;;;;;;5.97;5.57;;;32.50;1.00;;;;;;4934611;29;20434;-71
2023/08/12 09:12:34;;;;;;;4.70;4.30;;;32.50;1.00;;;;;;4935687;29;20419;-72
2023/08/12 09:14:59;;;;;;;5.60;5.10;;;32.60;1.00;;;;;;4935855;29;20963;-70
2023/08/12 09:17:26;;;;;;;5.57;5.17;;;32.90;1.00;;;;;;4936288;29;20193;-70
2023/08/12 09:19:51;;;;;;;5.90;5.40;;;33.00;1.00;;;;;;4935520;29;20190;-71
2023/08/12 09:22:18;;;;;;;5.53;4.83;;;32.90;1.00;;;;;;4935582;29;20505;-71
2023/08/12 09:24:44;;;;;;;5.97;5.47;;;33.40;1.00;;;;;;4935646;29;20225;-71
2023/08/12 09:27:10;;;;;;;5.00;4.60;;;33.10;1.00;;;;;;4935156;29;20434;-71
2023/08/12 09:29:36;;;;;;;7.10;5.00;;;32.30;1.00;;;;;;4934968;29;20175;-71
2023/08/12 09:32:19;;;;;;;5.63;5.23;;;32.40;1.00;;;;;;4934276;29;20427;-72
2023/08/12 09:34:49;;;;;;;4.60;4.20;;;32.70;1.00;;;;;;4935253;29;20486;-71
2023/08/12 09:37:15;;;;;;;5.27;4.47;;;33.00;1.00;;;;;;4935424;29;20437;-71
2023/08/12 09:39:42;;;;;;;5.53;5.13;;;33.10;1.00;;;;;;4935495;29;20422;-71
2023/08/12 09:42:07;;;;;;;5.50;5.00;;;32.90;1.00;;;;;;4933921;29;20439;-71
2023/08/12 09:44:37;;;;;;;5.60;5.10;;;32.70;1.00;;;;;;4935683;29;20486;-72
2023/08/12 09:47:03;;;;;;;5.80;5.03;;;32.70;1.00;;;;;;4934884;29;20186;-70
2023/08/12 09:49:29;;;;;;;4.57;4.27;;;32.30;1.00;;;;;;4935026;29;20429;-70
2023/08/12 09:51:55;;;;;;;5.30;4.80;;;32.90;1.00;;;;;;4934710;29;20576;-70
2023/08/12 09:54:21;;;;;;;5.30;4.90;;;33.10;1.00;;;;;;4934857;29;20210;-70
2023/08/12 09:56:49;;;;;;;5.67;5.17;;;33.50;1.00;;;;;;4935279;29;20426;-71
2023/08/12 09:59:22;;;;;;;5.20;4.80;;;33.40;1.00;;;;;;4934992;29;20427;-71
2023/08/12 10:01:49;;;;;;;6.23;5.50;;;33.60;1.00;;;;;;4934954;29;20428;-71
2023/08/12 10:04:16;;;;;;;6.23;4.70;;;33.70;1.00;;;;;;4934668;29;20569;-70
2023/08/12 10:06:43;;;;;;;5.30;4.43;;;33.70;1.00;;;;;;4934881;29;20839;-71
2023/08/12 10:09:11;;;;;;;9.03;5.80;;;33.60;1.00;;;;;;4934617;29;20426;-69
2023/08/12 10:11:37;;;;;;;5.27;4.87;;;33.60;1.00;;;;;;4935657;29;20427;-69
2023/08/12 10:14:04;;;;;;;5.70;4.40;;;33.30;1.00;;;;;;4940964;29;20968;-70
2023/08/12 10:16:30;;;;;;;6.10;5.60;;;32.80;1.00;;;;;;4955901;28;20883;-70
2023/08/12 10:18:57;;;;;;;5.90;5.00;;;32.40;1.00;;;;;;4956058;28;20446;-71
2023/08/12 10:21:24;;;;;;;5.93;5.43;;;32.40;1.00;;;;;;4955357;28;20438;-71
2023/08/12 10:23:50;;;;;;;5.97;5.57;;;32.70;1.00;;;;;;4940373;29;20478;-70
2023/08/12 10:26:17;;;;;;;5.33;4.90;;;32.70;1.00;;;;;;4941049;29;20448;-70
2023/08/12 10:28:43;;;;;;;4.80;4.40;;;32.80;1.00;;;;;;4941315;29;20425;-70
2023/08/12 10:31:11;;;;;;;5.27;4.87;;;33.30;1.00;;;;;;4941228;29;20512;-71
2023/08/12 10:33:38;;;;;;;5.13;4.73;;;33.50;1.00;;;;;;4941089;29;20936;-71
2023/08/12 10:36:05;;;;;;;5.97;5.57;;;33.70;1.00;;;;;;4941405;29;20418;-71
2023/08/12 10:38:32;;;;;;;5.10;4.67;;;33.70;1.00;;;;;;4941034;29;20999;-71
2023/08/12 10:41:16;;;;;;;5.40;5.00;;;33.30;1.00;;;;;;4941275;29;20422;-70
2023/08/12 10:44:03;;;;;;;6.83;6.03;;;33.10;1.00;;;;;;4940634;29;20533;-69
2023/08/12 10:46:34;;;;;;;5.70;5.27;;;32.90;1.00;;;;;;4941247;29;20778;-68
2023/08/12 10:49:03;;;;;;;5.60;5.20;;;33.00;1.00;;;;;;4941038;29;20414;-67
2023/08/12 10:51:52;;;;;;;6.07;5.57;;;33.20;1.00;;;;;;4940783;29;20420;-67
2023/08/12 10:54:20;;;;;;;5.40;5.00;;;33.20;1.00;;;;;;4940232;29;20810;-68
2023/08/12 10:57:05;;;;;;;5.67;5.30;;;32.80;1.00;;;;;;4941026;29;20450;-70
2023/08/12 10:59:51;;;;;;;5.60;5.10;;;32.40;1.00;;;;;;4940965;29;20453;-68
2023/08/12 11:02:33;;;;;;;4.63;4.23;;;31.90;1.00;;;;;;4940638;29;20417;-68
2023/08/12 11:05:08;;;;;;;5.10;4.70;;;31.70;1.00;;;;;;4955519;29;20477;-68
2023/08/12 11:07:44;;;;;;;5.60;5.20;;;31.50;1.00;;;;;;4955269;29;20426;-69
2023/08/12 11:10:18;;;;;;;4.73;4.43;;;31.60;1.00;;;;;;4940718;29;20437;-68
2023/08/12 11:12:54;;;;;;;5.37;4.87;;;31.90;1.00;;;;;;4940583;29;20720;-68
2023/08/12 11:15:41;;;;;;;5.60;5.10;;;32.20;1.00;;;;;;4941018;29;20442;-69
2023/08/12 11:18:17;;;;;;;5.57;5.07;;;32.40;1.00;;;;;;4940909;29;20549;-68
2023/08/12 11:20:44;;;;;;;6.37;4.70;;;32.80;1.00;;;;;;4940585;29;20923;-69
2023/08/12 11:23:10;;;;;;;5.37;4.67;;;32.60;1.00;;;;;;4939377;29;20481;-68
2023/08/12 11:25:38;;;;;;;4.87;4.57;;;32.50;1.00;;;;;;4937636;29;20960;-68
2023/08/12 11:28:04;;;;;;;4.93;4.50;;;32.40;1.00;;;;;;4938030;29;20415;-69
2023/08/12 11:30:30;;;;;;;4.30;4.00;;;32.30;1.00;;;;;;4937473;29;20418;-69
2023/08/12 11:32:56;;;;;;;11.50;4.60;;;32.40;1.00;;;;;;4937140;29;20434;-69
2023/08/12 11:35:24;;;;;;;4.97;4.57;;;32.20;1.00;;;;;;4935832;29;20673;-68
2023/08/12 11:37:55;;;;;;;5.40;4.40;;;32.10;1.00;;;;;;4937681;29;20433;-68
2023/08/12 11:40:22;;;;;;;6.67;4.20;;;32.40;1.00;;;;;;4936452;29;20862;-68
2023/08/12 11:42:49;;;;;;;5.23;4.73;;;32.40;1.00;;;;;;4937478;29;20988;-69
2023/08/12 11:45:20;;;;;;;7.20;4.57;;;32.40;1.00;;;;;;4937427;29;21011;-69
2023/08/12 11:47:52;;;;;;;5.60;5.10;;;32.60;1.00;;;;;;4937973;29;20413;-69
2023/08/12 11:50:20;;;;;;;5.67;4.40;;;32.50;1.00;;;;;;4936992;29;20430;-71
2023/08/12 11:52:46;;;;;;;5.27;4.87;;;32.30;1.00;;;;;;4937616;29;20430;-72
2023/08/12 11:55:12;;;;;;;5.30;4.80;;;32.10;1.00;;;;;;4937011;29;20466;-72
2023/08/12 11:57:40;;;;;;;5.13;4.30;;;32.40;1.00;;;;;;4936616;29;20422;-72
2023/08/12 12:00:13;;;;;;;5.17;4.37;;;31.90;1.00;;;;;;4937046;29;20430;-72
2023/08/12 12:02:51;;;;;;;4.40;4.10;;;31.90;1.00;;;;;;4951634;29;20430;-72
2023/08/12 12:05:17;;;;;;;5.10;4.73;;;32.00;1.00;;;;;;4951598;29;20529;-73
2023/08/12 12:07:43;;;;;;;5.00;4.60;;;32.10;1.00;;;;;;4936912;29;20430;-71
2023/08/12 12:10:15;;;;;;;5.63;4.47;;;31.80;1.00;;;;;;4936808;29;20423;-71
2023/08/12 12:12:41;;;;;;;6.70;4.30;;;31.40;1.00;;;;;;4936710;29;20473;-71
2023/08/12 12:15:07;;;;;;;5.23;4.57;;;31.30;1.00;;;;;;4934782;29;20994;-72
2023/08/12 12:17:38;;;;;;;5.03;4.63;;;31.10;1.00;;;;;;4936621;29;20791;-72
2023/08/12 12:20:05;;;;;;;4.70;4.30;;;31.30;1.00;;;;;;4935293;29;20941;-73
2023/08/12 12:22:32;;;;;;;4.57;4.17;;;31.70;1.00;;;;;;4936313;29;20430;-72
2023/08/12 12:24:59;;;;;;;4.60;4.30;;;32.10;1.00;;;;;;4936260;29;20557;-72
2023/08/12 12:27:26;;;;;;;4.30;4.00;;;32.00;1.00;;;;;;4936274;29;20507;-72
2023/08/12 12:29:51;;;;;;;5.10;4.60;;;31.50;1.00;;;;;;4936540;29;20498;-72
2023/08/12 12:32:21;;;;;;;4.80;4.50;;;31.20;1.00;;;;;;4936208;29;20446;-72
2023/08/12 12:34:47;;;;;;;6.90;4.40;;;31.00;1.00;;;;;;4935672;29;20699;-71
2023/08/12 12:37:15;;;;;;;4.83;4.30;;;30.60;1.00;;;;;;4934992;29;20437;-72
2023/08/12 12:39:41;;;;;;;4.80;4.30;;;30.30;1.00;;;;;;4936304;29;20434;-76
2023/08/12 12:42:07;;;;;;;14.53;4.27;;;30.20;1.00;;;;;;4935748;29;20928;-75
2023/08/12 12:44:33;;;;;;;5.10;4.67;;;29.80;1.00;;;;;;4936375;29;20218;-70
2023/08/12 12:46:58;;;;;;;5.33;4.03;;;29.20;1.00;;;;;;4936108;29;20198;-69
2023/08/12 12:49:24;;;;;;;7.50;4.03;;;27.90;3.80;;;;;;4925537;29;20187;-69
2023/08/12 12:51:49;;;;;;;6.03;3.90;;;26.90;9.50;;;;;;4935994;29;20175;-69